Time;durP1;ratioP1;P1;durP2;ratioP2;P2;SDS_P1;SDS_P2;PMS_P1;PMS_P2;Temp;Humidity;BMP_temperature;BMP_pressure;BME280_temperature;BME280_humidity;BME280_pressure;Samples;Min_cycle;Max_cycle;Signal;HPM_P1;HPM_P2
2021/07/15 00:00:26;;;;;;;0.63;0.30;;;;;;;16.39;72.67;98413.94;5096229;27;38918;-89
2021/07/15 00:02:54;;;;;;;0.40;0.40;;;;;;;16.22;72.53;98394.09;5113529;27;42095;-87
2021/07/15 00:05:22;;;;;;;0.33;0.33;;;;;;;16.26;72.53;98410.72;5075977;28;42041;-87
2021/07/15 00:07:50;;;;;;;0.20;0.20;;;;;;;16.19;72.70;98407.78;5076138;28;41331;-89
2021/07/15 00:10:22;;;;;;;0.33;0.33;;;;;;;16.14;73.55;98402.84;5093943;28;41042;-88
2021/07/15 00:12:52;;;;;;;0.70;0.70;;;;;;;16.09;73.61;98405.09;5086797;27;42223;-88
2021/07/15 00:15:21;;;;;;;0.40;0.40;;;;;;;15.97;73.41;98386.69;5095735;27;42132;-89
2021/07/15 00:17:52;;;;;;;0.37;0.37;;;;;;;15.88;73.21;98380.38;5096809;27;41469;-88
2021/07/15 00:20:20;;;;;;;0.50;0.50;;;;;;;15.89;73.19;98395.41;5096562;27;38970;-89
2021/07/15 00:22:47;;;;;;;0.50;0.47;;;;;;;15.90;73.27;98402.44;5092183;28;41173;-89
2021/07/15 00:25:18;;;;;;;0.20;0.20;;;;;;;15.90;73.15;98397.09;5076735;27;42097;-88
2021/07/15 00:27:45;;;;;;;0.30;0.30;;;;;;;15.80;73.25;98374.88;5095738;27;42089;-88
2021/07/15 00:30:15;;;;;;;0.30;0.30;;;;;;;15.76;73.40;98368.13;5096236;27;40247;-88
2021/07/15 00:32:43;;;;;;;1.20;0.30;;;;;;;15.77;73.38;98375.16;5092100;28;41061;-88
2021/07/15 00:35:13;;;;;;;0.43;0.40;;;;;;;15.74;73.54;98359.41;5093388;28;41941;-88
2021/07/15 00:37:41;;;;;;;0.30;0.23;;;;;;;15.77;73.39;98367.16;5077478;27;42174;-88
2021/07/15 00:40:15;;;;;;;0.40;0.40;;;;;;;15.82;73.51;98378.28;5097424;27;38856;-87
2021/07/15 00:42:43;;;;;;;0.20;0.20;;;;;;;15.80;73.38;98380.22;5097914;27;40432;-88
2021/07/15 00:45:13;;;;;;;0.30;0.30;;;;;;;15.84;73.70;98386.97;5099535;27;42995;-89
2021/07/15 00:47:41;;;;;;;0.20;0.20;;;;;;;15.74;73.67;98375.44;5096200;28;41296;-88
2021/07/15 00:50:10;;;;;;;0.40;0.40;;;;;;;15.81;73.66;98395.28;5079353;28;39389;-89
2021/07/15 00:52:40;;;;;;;0.23;0.23;;;;;;;15.74;73.55;98372.75;5078571;28;40699;-88
2021/07/15 00:55:13;;;;;;;0.27;0.27;;;;;;;15.75;73.49;98363.78;5094740;28;42776;-89
2021/07/15 00:57:41;;;;;;;0.30;0.30;;;;;;;15.99;73.57;98390.91;5079635;28;43663;-89
2021/07/15 01:00:11;;;;;;;0.40;0.40;;;;;;;15.99;73.24;98380.22;5079564;28;39259;-88
2021/07/15 01:02:38;;;;;;;0.30;0.30;;;;;;;16.15;73.36;98390.34;5088279;27;41046;-88
2021/07/15 01:05:10;;;;;;;0.60;0.60;;;;;;;16.03;73.86;98368.28;5100216;27;42217;-88
2021/07/15 01:07:39;;;;;;;0.40;0.40;;;;;;;16.17;74.67;98388.38;5099102;27;41208;-88
2021/07/15 01:10:09;;;;;;;0.40;0.40;;;;;;;16.00;74.51;98365.03;5096237;28;38692;-89
2021/07/15 01:12:49;;;;;;;0.30;0.30;;;;;;;16.25;74.42;98409.88;5078682;28;40709;-87
2021/07/15 01:15:21;;;;;;;0.40;0.33;;;;;;;16.13;74.43;98398.50;5079157;28;43264;-89
2021/07/15 01:18:01;;;;;;;0.40;0.40;;;;;;;16.08;74.47;98389.19;5103355;27;42267;-90
2021/07/15 01:20:54;;;;;;;0.30;0.30;;;;;;;16.23;74.84;98397.63;5116548;27;40335;-88
2021/07/15 01:23:41;;;;;;;0.33;0.33;;;;;;;16.26;74.66;98403.53;5099104;27;40787;-89
2021/07/15 01:26:19;;;;;;;0.40;0.40;;;;;;;16.27;74.92;98401.72;5099089;27;41774;-88
2021/07/15 01:29:17;;;;;;;0.50;0.50;;;;;;;16.21;74.88;98410.28;5106515;27;41625;-89
2021/07/15 01:31:48;;;;;;;0.30;0.30;;;;;;;16.13;75.00;98413.66;5099031;27;40062;-89
2021/07/15 01:34:18;;;;;;;0.27;0.27;;;;;;;16.14;75.11;98423.38;5099210;27;40947;-88
2021/07/15 01:36:50;;;;;;;0.30;0.30;;;;;;;16.17;75.28;98426.63;5094818;28;41982;-88
2021/07/15 01:39:20;;;;;;;0.37;0.37;;;;;;;16.14;75.56;98421.53;5078889;28;41224;-88
2021/07/15 01:41:51;;;;;;;0.40;0.33;;;;;;;16.22;75.34;98434.19;5079056;28;39859;-89
2021/07/15 01:44:23;;;;;;;0.40;0.40;;;;;;;16.08;75.58;98390.03;5088034;28;40860;-88
2021/07/15 01:46:53;;;;;;;0.30;0.30;;;;;;;16.18;75.77;98406.09;5078802;28;43295;-88
2021/07/15 01:49:21;;;;;;;0.40;0.40;;;;;;;15.97;75.77;98382.19;5095035;28;41279;-88
2021/07/15 01:51:50;;;;;;;0.30;0.30;;;;;;;16.09;75.57;98413.09;5081130;27;39021;-88
2021/07/15 01:54:18;;;;;;;0.40;0.40;;;;;;;16.09;75.46;98421.13;5097890;27;42182;-88
2021/07/15 01:56:47;;;;;;;0.50;0.50;;;;;;;15.96;75.56;98404.53;5099293;27;41632;-90
2021/07/15 01:59:18;;;;;;;0.50;0.50;;;;;;;16.10;75.17;98430.81;5098848;27;41108;-89
2021/07/15 02:01:48;;;;;;;0.30;0.30;;;;;;;16.16;75.31;98451.66;5099739;27;39245;-88
2021/07/15 02:04:17;;;;;;;0.50;0.40;;;;;;;16.17;75.45;98450.66;5098243;27;41110;-89
2021/07/15 02:06:48;;;;;;;0.40;0.40;;;;;;;16.06;75.70;98434.78;5098518;27;42176;-88
2021/07/15 02:09:17;;;;;;;0.80;0.60;;;;;;;16.14;76.00;98437.56;5115359;27;41209;-89
2021/07/15 02:11:48;;;;;;;0.27;0.27;;;;;;;16.14;75.84;98432.22;5097888;27;39157;-87
2021/07/15 02:14:17;;;;;;;0.30;0.30;;;;;;;16.11;75.41;98437.84;5098611;27;40605;-89
2021/07/15 02:16:49;;;;;;;0.30;0.30;;;;;;;16.08;76.07;98438.13;5097653;27;42782;-88
2021/07/15 02:19:20;;;;;;;0.37;0.37;;;;;;;16.12;75.69;98446.72;5098541;27;41170;-88
2021/07/15 02:21:49;;;;;;;0.20;0.20;;;;;;;16.08;75.47;98438.13;5097868;27;38813;-88
2021/07/15 02:24:22;;;;;;;0.20;0.20;;;;;;;15.92;75.66;98426.34;5098446;27;41033;-89
2021/07/15 02:26:53;;;;;;;0.27;0.27;;;;;;;16.09;75.62;98466.53;5098079;27;41618;-91
2021/07/15 02:29:21;;;;;;;0.50;0.50;;;;;;;16.05;75.85;98458.94;5098094;27;41216;-88
2021/07/15 02:31:52;;;;;;;0.63;0.50;;;;;;;16.07;75.60;98467.69;5097741;27;38801;-90
2021/07/15 02:34:25;;;;;;;0.23;0.23;;;;;;;16.08;76.02;98469.34;5096894;27;40680;-89
2021/07/15 02:36:54;;;;;;;1.40;1.17;;;;;;;15.97;75.88;98451.63;5115017;27;42708;-88
2021/07/15 02:39:21;;;;;;;0.30;0.30;;;;;;;16.00;75.51;98456.69;5097376;27;41437;-88
2021/07/15 02:41:49;;;;;;;0.20;0.20;;;;;;;16.00;75.32;98458.50;5097953;27;39833;-88
2021/07/15 02:44:17;;;;;;;0.30;0.30;;;;;;;16.08;75.64;98475.53;5097510;27;40655;-88
2021/07/15 02:46:45;;;;;;;0.40;0.40;;;;;;;15.99;75.44;98471.03;5097591;27;43138;-88
2021/07/15 02:49:13;;;;;;;3.30;0.70;;;;;;;15.98;75.63;98464.00;5097648;27;41388;-87
2021/07/15 02:51:42;;;;;;;0.50;0.50;;;;;;;16.00;75.58;98466.53;5098180;27;39952;-89
2021/07/15 02:54:10;;;;;;;0.43;0.43;;;;;;;15.97;76.06;98456.97;5094050;28;40987;-87
2021/07/15 02:56:44;;;;;;;0.40;0.40;;;;;;;15.99;76.38;98456.81;5077157;28;42012;-87
2021/07/15 02:59:20;;;;;;;0.30;0.30;;;;;;;16.05;76.08;98459.78;5098396;27;42480;-89
2021/07/15 03:01:51;;;;;;;0.50;0.50;;;;;;;15.98;76.12;98450.63;5098222;27;38913;-88
2021/07/15 03:04:26;;;;;;;0.97;0.80;;;;;;;15.99;76.54;98444.31;5096191;27;40667;-90
2021/07/15 03:06:57;;;;;;;0.30;0.30;;;;;;;16.00;76.40;98446.00;5096687;27;42045;-87
2021/07/15 03:09:27;;;;;;;0.60;0.60;;;;;;;16.08;76.09;98458.66;5095751;27;41115;-90
2021/07/15 03:12:01;;;;;;;0.30;0.30;;;;;;;15.96;76.44;98433.91;5098494;27;39006;-89
2021/07/15 03:14:31;;;;;;;0.40;0.40;;;;;;;16.07;76.35;98447.13;5098961;27;41011;-88
2021/07/15 03:17:00;;;;;;;0.50;0.50;;;;;;;15.92;76.51;98421.00;5098420;27;43110;-89
2021/07/15 03:19:31;;;;;;;0.30;0.30;;;;;;;15.92;77.30;98416.50;5096576;27;41250;-88
2021/07/15 03:22:04;;;;;;;1.30;0.40;;;;;;;16.09;77.99;98439.81;5096114;27;40132;-89
2021/07/15 03:24:37;;;;;;;0.40;0.40;;;;;;;16.09;78.03;98450.50;5096966;27;40819;-89
2021/07/15 03:27:06;;;;;;;1.13;1.03;;;;;;;15.97;78.75;98427.59;5092685;28;42124;-88
2021/07/15 03:29:36;;;;;;;0.50;0.50;;;;;;;16.08;78.45;98446.13;5076715;28;41073;-89
2021/07/15 03:32:07;;;;;;;0.57;0.57;;;;;;;16.10;78.23;98449.53;5081423;28;38750;-88
2021/07/15 03:34:36;;;;;;;0.47;0.47;;;;;;;16.02;78.12;98438.69;5097758;28;40660;-90
2021/07/15 03:37:07;;;;;;;0.80;0.80;;;;;;;16.13;78.40;98451.91;5118942;27;41864;-88
2021/07/15 03:39:36;;;;;;;0.50;0.50;;;;;;;16.04;78.00;98431.41;5119452;27;42294;-89
2021/07/15 03:42:04;;;;;;;0.97;0.90;;;;;;;16.05;77.75;98443.78;5119035;27;39107;-90
2021/07/15 03:44:32;;;;;;;0.60;0.60;;;;;;;16.16;77.74;98448.13;5119427;27;40426;-92
2021/07/15 03:47:00;;;;;;;0.70;0.70;;;;;;;16.16;77.79;98440.97;5116020;28;43097;-87
2021/07/15 03:49:29;;;;;;;0.50;0.50;;;;;;;16.13;77.63;98441.22;5091357;28;42089;-87
2021/07/15 03:51:58;;;;;;;0.67;0.67;;;;;;;16.17;77.31;98448.00;5092225;28;38799;-89
2021/07/15 03:54:28;;;;;;;0.30;0.30;;;;;;;16.22;77.22;98460.06;5096351;27;40559;-87
2021/07/15 03:56:56;;;;;;;1.00;0.70;;;;;;;16.17;76.98;98452.47;5112405;27;42247;-87
2021/07/15 03:59:27;;;;;;;0.50;0.50;;;;;;;16.23;77.02;98445.72;5112042;27;41037;-88
2021/07/15 04:02:01;;;;;;;0.93;0.73;;;;;;;16.30;76.88;98452.19;5099846;28;39070;-90
2021/07/15 04:04:30;;;;;;;0.60;0.60;;;;;;;16.45;76.60;98472.13;5076362;28;40749;-89
2021/07/15 04:07:02;;;;;;;0.40;0.40;;;;;;;16.41;76.47;98452.06;5076954;28;41817;-88
2021/07/15 04:09:36;;;;;;;0.50;0.50;;;;;;;16.47;76.30;98443.44;5077744;27;41105;-90
2021/07/15 04:12:06;;;;;;;0.57;0.50;;;;;;;16.57;76.56;98460.31;5097248;27;40386;-89
2021/07/15 04:14:50;;;;;;;0.60;0.50;;;;;;;16.64;76.56;98460.63;5096192;27;40530;-90
2021/07/15 04:17:18;;;;;;;0.43;0.43;;;;;;;16.60;76.12;98445.81;5099421;27;41737;-89
2021/07/15 04:19:47;;;;;;;0.50;0.50;;;;;;;16.68;76.19;98446.00;5100115;27;41082;-89
2021/07/15 04:22:15;;;;;;;0.50;0.50;;;;;;;16.73;76.45;98449.91;5100466;27;39371;-88
2021/07/15 04:24:46;;;;;;;0.53;0.53;;;;;;;16.78;76.04;98450.31;5100535;27;40632;-89
2021/07/15 04:27:14;;;;;;;0.73;0.73;;;;;;;16.82;76.00;98438.34;5100310;27;41756;-89
2021/07/15 04:29:41;;;;;;;0.67;0.67;;;;;;;16.88;75.83;98445.78;5117276;27;41479;-89
2021/07/15 04:32:22;;;;;;;0.30;0.30;;;;;;;16.94;76.28;98446.22;5116147;27;39880;-88
2021/07/15 04:34:50;;;;;;;0.73;0.73;;;;;;;17.09;75.82;98447.41;5099362;27;42826;-89
2021/07/15 04:37:19;;;;;;;0.60;0.60;;;;;;;17.14;75.93;98448.66;5098524;27;42799;-87
2021/07/15 04:39:49;;;;;;;0.73;0.73;;;;;;;17.06;75.76;98423.63;5099219;27;41300;-90
2021/07/15 04:42:18;;;;;;;0.60;0.60;;;;;;;17.20;75.78;98447.22;5116025;27;39006;-88
2021/07/15 04:44:47;;;;;;;0.60;0.60;;;;;;;17.17;75.58;98437.66;5099884;27;40863;-90
2021/07/15 04:47:15;;;;;;;0.80;0.80;;;;;;;17.16;75.53;98427.94;5116772;27;43757;-88
2021/07/15 04:49:44;;;;;;;0.77;0.60;;;;;;;17.25;75.71;98436.91;5099843;27;42522;-90
2021/07/15 04:52:13;;;;;;;0.50;0.50;;;;;;;17.31;75.57;98436.31;5117317;27;40380;-91
2021/07/15 04:54:42;;;;;;;0.50;0.50;;;;;;;17.27;75.69;98420.72;5100121;27;42169;-88
2021/07/15 04:57:12;;;;;;;0.47;0.47;;;;;;;17.38;75.88;98437.41;5117120;27;42921;-89
2021/07/15 04:59:40;;;;;;;0.40;0.37;;;;;;;17.36;75.60;98427.84;5099392;27;41252;-90
2021/07/15 05:02:08;;;;;;;0.30;0.30;;;;;;;17.46;75.66;98437.50;5099838;27;39127;-90
2021/07/15 05:04:36;;;;;;;0.50;0.50;;;;;;;17.53;75.29;98451.16;5100154;27;40827;-89
2021/07/15 05:07:05;;;;;;;1.10;0.70;;;;;;;17.57;75.67;98449.84;5099153;27;43213;-89
2021/07/15 05:09:33;;;;;;;0.50;0.50;;;;;;;17.59;75.75;98446.03;5098612;27;41651;-87
2021/07/15 05:12:00;;;;;;;0.30;0.30;;;;;;;17.67;75.25;98449.84;5098620;27;39946;-87
2021/07/15 05:14:40;;;;;;;0.60;0.60;;;;;;;17.76;75.05;98460.47;5115907;27;41823;-88
2021/07/15 05:17:08;;;;;;;0.50;0.50;;;;;;;17.83;75.17;98450.00;5099466;27;41687;-86
2021/07/15 05:19:36;;;;;;;0.60;0.60;;;;;;;17.90;75.04;98451.09;5100285;27;41230;-89
2021/07/15 05:22:04;;;;;;;0.60;0.60;;;;;;;17.91;74.92;98444.75;5098517;27;40002;-87
2021/07/15 05:24:32;;;;;;;0.53;0.53;;;;;;;17.93;75.01;98446.25;5099041;27;40578;-89
2021/07/15 05:27:02;;;;;;;0.60;0.57;;;;;;;18.09;74.87;98466.16;5094459;27;43056;-86
2021/07/15 05:29:31;;;;;;;1.03;0.87;;;;;;;18.14;74.83;98464.72;5078207;28;41223;-82
2021/07/15 05:31:59;;;;;;;0.40;0.40;;;;;;;18.13;74.50;98452.31;5095439;28;40737;-88
2021/07/15 05:34:27;;;;;;;0.57;0.57;;;;;;;17.94;74.41;98426.50;5095313;28;42944;-91
2021/07/15 05:36:54;;;;;;;0.60;0.60;;;;;;;18.25;74.29;98469.84;5078057;28;42319;-88
2021/07/15 05:39:23;;;;;;;0.73;0.73;;;;;;;18.29;74.78;98473.09;5102407;27;42546;-84
2021/07/15 05:41:51;;;;;;;0.70;0.50;;;;;;;18.33;74.68;98462.88;5117247;27;41048;-89
2021/07/15 05:44:18;;;;;;;0.67;0.67;;;;;;;18.30;74.42;98442.56;5116046;27;41954;-90
2021/07/15 05:46:47;;;;;;;0.50;0.50;;;;;;;18.46;74.25;98455.28;5134970;27;43801;-88
2021/07/15 05:49:15;;;;;;;0.80;0.63;;;;;;;18.43;73.70;98431.44;5097783;27;41401;-89
2021/07/15 05:51:46;;;;;;;1.77;1.63;;;;;;;18.57;73.53;98439.78;5088325;28;41323;-88
2021/07/15 05:54:13;;;;;;;0.80;0.80;;;;;;;18.70;73.43;98449.28;5096831;28;42117;-87
2021/07/15 05:56:41;;;;;;;2.60;1.00;;;;;;;18.78;73.20;98452.88;5098671;27;41640;-90
2021/07/15 05:59:09;;;;;;;0.50;0.50;;;;;;;18.85;73.00;98459.28;5098965;27;41289;-90
2021/07/15 06:01:36;;;;;;;0.87;0.70;;;;;;;18.95;73.05;98454.66;5092565;28;39082;-89
2021/07/15 06:04:06;;;;;;;0.60;0.60;;;;;;;19.02;72.54;98461.09;5094645;28;40868;-87
2021/07/15 06:06:33;;;;;;;0.73;0.73;;;;;;;19.15;72.40;98474.09;5096954;27;41781;-84
2021/07/15 06:09:01;;;;;;;0.73;0.73;;;;;;;19.12;72.53;98458.28;5098199;27;41184;-84
2021/07/15 06:11:29;;;;;;;0.70;0.70;;;;;;;19.27;72.04;98466.59;5096918;27;38626;-87
2021/07/15 06:13:56;;;;;;;0.60;0.60;;;;;;;19.45;72.02;98488.81;5106400;27;41620;-84
2021/07/15 06:16:24;;;;;;;0.63;0.63;;;;;;;19.39;71.49;98459.94;5114924;27;42847;-90
2021/07/15 06:18:55;;;;;;;0.43;0.40;;;;;;;19.64;71.32;98483.25;5094540;28;42110;-85
2021/07/15 06:21:24;;;;;;;0.60;0.60;;;;;;;19.72;71.10;98485.09;5098774;27;38903;-86
2021/07/15 06:23:52;;;;;;;0.50;0.50;;;;;;;19.78;70.87;98472.88;5098655;27;41638;-86
2021/07/15 06:26:19;;;;;;;0.37;0.37;;;;;;;19.83;70.55;98459.78;5114044;27;41806;-90
2021/07/15 06:28:48;;;;;;;0.70;0.70;;;;;;;20.13;70.18;98488.75;5094238;28;42023;-90
2021/07/15 06:31:15;;;;;;;0.50;0.50;;;;;;;20.28;69.82;98486.25;5096735;27;41149;-87
2021/07/15 06:33:43;;;;;;;0.73;0.50;;;;;;;20.37;69.26;98483.44;5115984;27;41426;-88
2021/07/15 06:36:11;;;;;;;1.00;0.93;;;;;;;20.43;69.04;98477.38;5098993;27;42017;-90
2021/07/15 06:38:40;;;;;;;0.67;0.67;;;;;;;20.52;68.54;98472.03;5098044;27;41643;-93
2021/07/15 06:41:10;;;;;;;0.93;0.87;;;;;;;20.84;68.31;98493.53;5098217;27;39954;-83
2021/07/15 06:43:39;;;;;;;0.60;0.60;;;;;;;20.91;67.50;98489.13;5115061;27;44834;-86
2021/07/15 06:46:07;;;;;;;1.13;0.50;;;;;;;21.09;67.48;98497.88;5098070;27;43425;-92
2021/07/15 06:48:35;;;;;;;0.60;0.60;;;;;;;21.22;66.86;98496.53;5096785;27;41479;-86
2021/07/15 06:51:04;;;;;;;0.60;0.60;;;;;;;21.15;66.56;98481.00;5115097;27;39842;-89
2021/07/15 06:53:33;;;;;;;0.53;0.53;;;;;;;21.13;66.84;98483.06;5097960;27;41552;-89
2021/07/15 06:56:02;;;;;;;0.57;0.57;;;;;;;21.20;66.51;98504.78;5114880;27;42055;-85
2021/07/15 06:58:30;;;;;;;0.50;0.47;;;;;;;21.07;66.70;98505.28;5096912;27;41139;-87
2021/07/15 07:01:16;;;;;;;0.60;0.60;;;;;;;21.02;67.11;98480.69;5097454;27;38885;-93
2021/07/15 07:03:44;;;;;;;0.70;0.70;;;;;;;21.28;67.04;98506.59;5096897;27;41274;-89
2021/07/15 07:06:11;;;;;;;0.70;0.70;;;;;;;21.41;65.87;98498.81;5097212;27;42673;-89
2021/07/15 07:08:39;;;;;;;0.70;0.70;;;;;;;21.62;65.53;98509.88;5114185;27;42173;-89
2021/07/15 07:11:08;;;;;;;0.60;0.60;;;;;;;21.78;65.19;98509.81;5114303;27;39043;-93
2021/07/15 07:13:36;;;;;;;0.63;0.63;;;;;;;21.93;64.88;98480.25;5097385;27;41191;-89
2021/07/15 07:16:04;;;;;;;0.70;0.47;;;;;;;22.11;64.26;98471.94;5110225;28;42127;-90
2021/07/15 07:18:31;;;;;;;0.57;0.50;;;;;;;22.66;63.79;98503.22;5077103;28;41318;-86
2021/07/15 07:21:00;;;;;;;0.77;0.77;;;;;;;22.91;61.27;98502.88;5088962;27;40157;-85
2021/07/15 07:23:27;;;;;;;0.60;0.60;;;;;;;22.85;62.04;98483.88;5096529;27;42126;-90
2021/07/15 07:25:55;;;;;;;0.50;0.50;;;;;;;22.92;62.54;98495.59;5096364;27;42013;-88
2021/07/15 07:28:26;;;;;;;0.70;0.70;;;;;;;22.86;61.94;98501.75;5095940;27;41109;-91
2021/07/15 07:30:54;;;;;;;0.93;0.93;;;;;;;22.79;62.20;98512.44;5096725;27;40133;-88
2021/07/15 07:33:21;;;;;;;0.63;0.50;;;;;;;22.72;63.00;98503.34;5097335;27;40541;-87
2021/07/15 07:35:49;;;;;;;1.33;0.70;;;;;;;22.69;62.80;98502.88;5113792;27;41734;-87
2021/07/15 07:38:16;;;;;;;0.40;0.40;;;;;;;22.58;62.68;98501.44;5096710;27;41519;-88
2021/07/15 07:40:44;;;;;;;1.20;1.10;;;;;;;22.49;62.64;98514.16;5113727;27;38862;-86
2021/07/15 07:43:12;;;;;;;0.60;0.60;;;;;;;22.44;62.64;98516.56;5114719;27;41108;-86
2021/07/15 07:45:41;;;;;;;0.60;0.60;;;;;;;22.49;63.06;98524.97;5102747;28;41790;-88
2021/07/15 07:48:11;;;;;;;0.50;0.50;;;;;;;22.47;62.73;98516.19;5096201;27;42707;-85
2021/07/15 07:50:39;;;;;;;0.73;0.70;;;;;;;22.57;63.02;98522.19;5106107;27;39167;-84
2021/07/15 07:53:07;;;;;;;0.53;0.53;;;;;;;22.52;62.84;98519.19;5097102;27;40834;-86
2021/07/15 07:55:35;;;;;;;0.40;0.40;;;;;;;22.54;62.82;98525.25;5095341;27;41888;-88
2021/07/15 07:58:15;;;;;;;0.57;0.50;;;;;;;22.49;63.00;98508.78;5113486;27;41577;-87
2021/07/15 08:00:45;;;;;;;0.40;0.40;;;;;;;22.61;63.15;98528.09;5096731;27;39170;-86
2021/07/15 08:03:49;;;;;;;0.40;0.40;;;;;;;22.71;62.98;98538.63;5096580;27;41854;-86
2021/07/15 08:06:18;;;;;;;0.33;0.33;;;;;;;22.77;61.88;98532.53;5094845;27;42240;-84
2021/07/15 08:08:46;;;;;;;0.50;0.50;;;;;;;22.78;61.26;98523.41;5097644;27;41203;-90
2021/07/15 08:11:15;;;;;;;0.40;0.40;;;;;;;22.92;60.79;98533.41;5112879;27;39006;-89
2021/07/15 08:13:43;;;;;;;0.57;0.57;;;;;;;23.15;60.56;98526.09;5096427;27;41715;-90
2021/07/15 08:16:12;;;;;;;0.50;0.40;;;;;;;23.47;59.58;98524.09;5091583;28;42216;-85
2021/07/15 08:18:39;;;;;;;0.33;0.33;;;;;;;23.93;58.40;98528.31;5075687;28;41168;-87
2021/07/15 08:21:07;;;;;;;0.30;0.30;;;;;;;24.30;57.71;98515.66;5106641;27;41156;-85
2021/07/15 08:23:35;;;;;;;0.30;0.30;;;;;;;25.08;56.54;98509.34;5113424;27;41378;-86
2021/07/15 08:26:02;;;;;;;0.30;0.30;;;;;;;26.53;52.29;98542.72;5096326;27;41795;-85
2021/07/15 08:28:32;;;;;;;0.30;0.30;;;;;;;27.69;49.03;98556.81;5112970;27;41551;-85
2021/07/15 08:31:01;;;;;;;0.97;0.60;;;;;;;28.71;47.66;98558.72;5130789;27;39971;-86
2021/07/15 08:33:30;;;;;;;0.40;0.40;;;;;;;29.50;46.50;98572.66;5095857;27;40866;-84
2021/07/15 08:36:00;;;;;;;0.43;0.43;;;;;;;30.00;44.66;98573.44;5095321;27;42194;-83
2021/07/15 08:38:28;;;;;;;0.23;0.23;;;;;;;30.22;44.02;98573.78;5130601;27;42879;-82
2021/07/15 08:40:55;;;;;;;0.30;0.30;;;;;;;29.64;44.39;98535.97;5112687;27;41072;-86
2021/07/15 08:43:24;;;;;;;0.30;0.30;;;;;;;29.43;44.36;98582.78;5095581;27;42089;-86
2021/07/15 08:45:52;;;;;;;0.30;0.30;;;;;;;28.93;45.04;98585.44;5112465;27;41922;-84
2021/07/15 08:48:21;;;;;;;0.30;0.30;;;;;;;28.68;45.55;98568.19;5112798;27;42616;-86
2021/07/15 08:50:51;;;;;;;0.30;0.30;;;;;;;29.77;43.48;98580.59;5095274;27;40797;-85
2021/07/15 08:53:20;;;;;;;0.43;0.43;;;;;;;31.78;40.59;98600.94;5112333;27;41852;-85
2021/07/15 08:58:34;;;;;;;0.50;0.40;;;;;;;31.40;38.97;98615.06;5095432;27;41355;-83
2021/07/15 09:01:02;;;;;;;0.20;0.20;;;;;;;31.12;40.38;98595.75;5094877;27;39162;-83
2021/07/15 09:03:29;;;;;;;0.40;0.40;;;;;;;30.77;40.53;98609.28;5097132;27;40446;-82
2021/07/15 09:05:58;;;;;;;0.33;0.33;;;;;;;30.27;41.88;98598.53;5097877;27;41800;-83
2021/07/15 09:08:26;;;;;;;0.40;0.40;;;;;;;29.78;42.01;98594.00;5099730;27;41628;-85
2021/07/15 09:10:54;;;;;;;0.57;0.47;;;;;;;29.48;43.19;98580.22;5116780;27;40997;-82
2021/07/15 09:13:22;;;;;;;0.40;0.40;;;;;;;29.40;43.03;98574.22;5115940;27;42110;-84
2021/07/15 09:15:50;;;;;;;0.30;0.30;;;;;;;29.85;42.52;98591.19;5115261;27;42567;-81
2021/07/15 09:18:18;;;;;;;0.80;0.80;;;;;;;30.44;41.73;98597.91;5098108;27;42299;-82
2021/07/15 09:20:46;;;;;;;0.57;0.57;;;;;;;30.11;41.70;98593.69;5121544;27;39135;-81
2021/07/15 09:23:19;;;;;;;0.50;0.50;;;;;;;29.74;41.35;98608.31;5133213;27;41951;-84
2021/07/15 09:25:58;;;;;;;0.40;0.40;;;;;;;29.22;42.12;98574.94;5108322;27;41810;-82
2021/07/15 09:28:33;;;;;;;0.20;0.20;;;;;;;29.29;43.73;98578.47;5098981;27;40941;-87
2021/07/15 09:31:18;;;;;;;0.40;0.40;;;;;;;29.25;42.99;98575.34;5115608;27;39176;-89
2021/07/15 09:33:47;;;;;;;0.40;0.40;;;;;;;29.18;43.32;98576.44;5098642;27;40719;-85
2021/07/15 09:36:19;;;;;;;0.57;0.57;;;;;;;29.07;43.45;98558.06;5099711;27;42098;-87
2021/07/15 09:38:48;;;;;;;0.33;0.33;;;;;;;29.21;44.14;98555.03;5098526;27;41461;-83
2021/07/15 09:41:19;;;;;;;0.30;0.30;;;;;;;29.30;43.60;98552.88;5115959;27;40078;-83
2021/07/15 09:43:47;;;;;;;0.40;0.40;;;;;;;29.33;43.60;98563.31;5115028;27;41487;-82
2021/07/15 09:46:18;;;;;;;0.30;0.30;;;;;;;29.26;41.91;98590.66;5114808;27;41908;-84
2021/07/15 09:48:48;;;;;;;0.47;0.40;;;;;;;29.25;42.75;98560.88;5099021;27;41560;-85
2021/07/15 09:51:18;;;;;;;0.50;0.50;;;;;;;30.05;43.07;98572.72;5097547;27;39372;-84
2021/07/15 09:53:46;;;;;;;0.93;0.50;;;;;;;30.20;42.95;98581.38;5098280;27;42190;-84
2021/07/15 09:56:17;;;;;;;0.33;0.33;;;;;;;30.27;42.14;98582.16;5115154;27;41836;-83
2021/07/15 09:58:46;;;;;;;0.40;0.40;;;;;;;30.47;41.09;98591.97;5098181;27;42521;-84
2021/07/15 10:01:26;;;;;;;0.40;0.40;;;;;;;30.27;42.27;98587.63;5099753;27;39844;-88
2021/07/15 10:03:56;;;;;;;0.40;0.40;;;;;;;30.02;42.03;98586.84;5115377;27;40782;-83
2021/07/15 10:06:23;;;;;;;0.67;0.67;;;;;;;29.85;41.98;98583.00;5133500;27;43003;-84
2021/07/15 10:08:54;;;;;;;0.70;0.70;;;;;;;29.70;42.67;98574.34;5098115;27;41567;-81
2021/07/15 10:11:26;;;;;;;0.50;0.50;;;;;;;29.67;42.93;98581.09;5114710;27;40730;-83
2021/07/15 10:14:01;;;;;;;0.67;0.67;;;;;;;29.57;42.96;98576.13;5133171;27;41936;-87
2021/07/15 10:16:30;;;;;;;0.50;0.50;;;;;;;29.67;41.72;98592.84;5097653;27;41717;-80
2021/07/15 10:18:58;;;;;;;0.50;0.50;;;;;;;29.87;42.22;98581.72;5098177;27;41407;-83
2021/07/15 10:21:28;;;;;;;0.50;0.50;;;;;;;29.99;42.17;98590.03;5097816;27;39076;-84
2021/07/15 10:23:56;;;;;;;0.60;0.60;;;;;;;29.73;40.49;98591.13;5133074;27;41966;-83
2021/07/15 10:26:26;;;;;;;0.77;0.77;;;;;;;29.42;40.36;98600.22;5119848;27;42981;-85
2021/07/15 10:28:54;;;;;;;1.03;0.70;;;;;;;29.13;43.03;98570.84;5097911;27;41248;-81
2021/07/15 10:31:24;;;;;;;0.40;0.40;;;;;;;30.17;41.23;98579.09;5115962;27;40968;-82
2021/07/15 10:33:53;;;;;;;0.50;0.50;;;;;;;30.81;41.42;98583.13;5116209;27;41141;-85
2021/07/15 10:36:22;;;;;;;0.50;0.50;;;;;;;30.83;40.78;98591.94;5104860;27;41569;-85
2021/07/15 10:38:51;;;;;;;0.50;0.50;;;;;;;30.50;42.08;98561.47;5103693;27;41451;-85
2021/07/15 10:41:21;;;;;;;0.60;0.60;;;;;;;30.11;42.32;98574.56;5097205;27;39947;-83
2021/07/15 10:43:53;;;;;;;0.50;0.50;;;;;;;29.63;42.34;98585.34;5114753;27;41577;-80
2021/07/15 10:46:21;;;;;;;0.57;0.57;;;;;;;29.19;43.31;98583.56;5097136;27;43093;-82
2021/07/15 10:48:49;;;;;;;0.63;0.63;;;;;;;28.81;43.62;98579.00;5097640;27;42153;-84
2021/07/15 10:51:17;;;;;;;0.43;0.43;;;;;;;29.33;43.99;98571.50;5117358;27;40160;-86
2021/07/15 10:53:46;;;;;;;0.57;0.57;;;;;;;29.27;43.49;98577.88;5087159;27;41537;-83
2021/07/15 10:56:18;;;;;;;0.40;0.40;;;;;;;29.31;43.72;98570.88;5119963;27;43903;-83
2021/07/15 10:58:48;;;;;;;0.43;0.43;;;;;;;29.69;43.21;98580.84;5117832;27;42616;-81
2021/07/15 11:01:41;;;;;;;0.40;0.40;;;;;;;29.68;43.38;98577.28;5100246;27;39380;-88
2021/07/15 11:04:11;;;;;;;0.83;0.83;;;;;;;29.60;43.31;98572.13;5120037;27;41896;-81
2021/07/15 11:06:42;;;;;;;0.57;0.57;;;;;;;29.79;43.63;98567.53;5114028;27;42786;-83
2021/07/15 11:09:12;;;;;;;0.63;0.63;;;;;;;29.74;43.84;98565.47;5133201;27;42967;-80
2021/07/15 11:11:45;;;;;;;0.80;0.80;;;;;;;29.50;43.37;98559.00;5113208;27;39937;-79
2021/07/15 11:14:39;;;;;;;0.60;0.60;;;;;;;29.36;43.31;98584.69;5096641;27;40876;-84
2021/07/15 11:17:29;;;;;;;0.57;0.57;;;;;;;29.35;44.42;98577.56;5110605;27;41690;-80
2021/07/15 11:20:08;;;;;;;0.67;0.60;;;;;;;29.59;43.93;98576.75;5131244;27;42416;-79
2021/07/15 11:22:51;;;;;;;0.83;0.83;;;;;;;29.91;44.45;98571.19;5113754;27;38952;-80
2021/07/15 11:25:32;;;;;;;0.50;0.50;;;;;;;30.29;42.66;98584.66;5113879;27;41993;-82
2021/07/15 11:28:02;;;;;;;0.80;0.80;;;;;;;30.65;41.89;98595.56;5114137;27;43306;-83
2021/07/15 11:30:43;;;;;;;0.60;0.60;;;;;;;30.86;41.16;98586.00;5112917;27;42574;-83
2021/07/15 11:33:40;;;;;;;0.80;0.80;;;;;;;31.55;42.39;98595.44;5134544;27;39975;-84
2021/07/15 11:36:11;;;;;;;0.80;0.80;;;;;;;31.86;40.30;98607.16;5072850;27;41310;-83
2021/07/15 11:38:42;;;;;;;0.80;0.80;;;;;;;31.88;39.04;98615.97;5115547;27;43128;-82
2021/07/15 11:41:11;;;;;;;0.60;0.53;;;;;;;31.91;37.86;98629.19;5116097;27;41628;-82
2021/07/15 11:43:53;;;;;;;0.80;0.80;;;;;;;31.94;38.06;98625.97;5097559;27;39973;-82
2021/07/15 11:46:22;;;;;;;1.10;1.00;;;;;;;32.65;38.11;98617.38;5099844;27;40744;-82
2021/07/15 11:48:58;;;;;;;0.70;0.70;;;;;;;33.36;38.42;98596.81;5099357;27;43279;-84
2021/07/15 11:51:41;;;;;;;0.90;0.90;;;;;;;34.46;36.76;98612.50;5114324;27;41607;-82